Time;durP1;ratioP1;P1;durP2;ratioP2;P2;SDS_P1;SDS_P2;PMS_P1;PMS_P2;Temp;Humidity;BMP_temperature;BMP_pressure;BME280_temperature;BME280_humidity;BME280_pressure;Samples;Min_cycle;Max_cycle;Signal;HPM_P1;HPM_P2
2023/09/05 00:01:54;;;;;;;;;;;;;;;14.70;100.00;96295.97;10558019;28;1981;-77
2023/09/05 00:06:56;;;;;;;;;;;;;;;14.56;100.00;96304.75;10546532;28;1573;-77
2023/09/05 00:11:59;;;;;;;;;;;;;;;14.56;100.00;96296.63;10539667;28;1057;-77
2023/09/05 00:17:01;;;;;;;;;;;;;;;14.57;100.00;96290.16;10541707;28;1493;-78
2023/09/05 00:22:04;;;;;;;;;;;;;;;14.55;100.00;96292.31;10543800;28;1918;-78
2023/09/05 00:27:07;;;;;;;;;;;;;;;14.46;100.00;96283.22;10563925;28;1026;-79
2023/09/05 00:32:09;;;;;;;;;;;;;;;14.44;100.00;96279.97;10555033;28;1469;-79
2023/09/05 00:37:25;;;;;;;;;;;;;;;14.41;100.00;96285.94;10462678;28;1829;-79
2023/09/05 00:42:28;;;;;;;;;;;;;;;14.40;100.00;96289.75;10459719;28;1993;-79
2023/09/05 00:47:32;;;;;;;;;;;;;;;14.39;100.00;96287.31;10464244;28;1546;-78
2023/09/05 00:52:36;;;;;;;;;;;;;;;14.39;100.00;96280.00;10463952;28;5087;-77
2023/09/05 00:57:38;;;;;;;;;;;;;;;14.24;100.00;96286.34;10464855;28;1492;-78
2023/09/05 01:02:42;;;;;;;;;;;;;;;14.19;100.00;96288.31;10457777;28;1993;-78
2023/09/05 01:07:44;;;;;;;;;;;;;;;14.12;100.00;96293.22;10515932;28;1091;-77
2023/09/05 01:12:46;;;;;;;;;;;;;;;14.11;100.00;96278.91;10555363;28;1556;-77
2023/09/05 01:17:53;;;;;;;;;;;;;;;14.04;100.00;96276.53;10549992;28;1497;-76
2023/09/05 01:22:56;;;;;;;;;;;;;;;14.06;100.00;96274.38;10558948;28;1905;-78
2023/09/05 01:27:59;;;;;;;;;;;;;;;14.01;100.00;96270.88;10543739;28;1588;-78
2023/09/05 01:33:02;;;;;;;;;;;;;;;14.05;100.00;96278.13;10541854;28;1493;-78
2023/09/05 01:38:04;;;;;;;;;;;;;;;13.94;100.00;96270.41;10550001;28;1054;-79
2023/09/05 01:43:07;;;;;;;;;;;;;;;13.84;100.00;96260.47;10555475;28;1983;-78
2023/09/05 01:48:09;;;;;;;;;;;;;;;13.84;100.00;96257.78;10551978;28;2488;-79
2023/09/05 01:53:12;;;;;;;;;;;;;;;13.84;100.00;96249.66;10437717;28;5078;-77
2023/09/05 01:58:14;;;;;;;;;;;;;;;13.77;100.00;96254.59;10444054;28;1558;-77
2023/09/05 02:03:17;;;;;;;;;;;;;;;13.73;100.00;96261.63;10419961;28;1977;-78
2023/09/05 02:08:19;;;;;;;;;;;;;;;13.60;100.00;96267.66;10432290;28;1585;-77
2023/09/05 02:13:22;;;;;;;;;;;;;;;13.52;100.00;96259.06;10418783;28;1610;-77
2023/09/05 02:18:24;;;;;;;;;;;;;;;13.44;100.00;96262.38;10431735;28;1626;-78
2023/09/05 02:23:26;;;;;;;;;;;;;;;13.54;100.00;96266.91;10428813;28;1921;-77
2023/09/05 02:28:29;;;;;;;;;;;;;;;13.59;100.00;96266.88;10433469;28;1510;-78
2023/09/05 02:33:33;;;;;;;;;;;;;;;13.60;100.00;96270.38;10426516;28;1524;-78
2023/09/05 02:38:37;;;;;;;;;;;;;;;13.60;100.00;96267.66;10429062;28;1047;-78
2023/09/05 02:43:39;;;;;;;;;;;;;;;13.61;100.00;96266.56;10420533;28;2320;-78
2023/09/05 02:48:41;;;;;;;;;;;;;;;13.49;100.00;96265.06;10427549;28;1495;-78
2023/09/05 02:53:44;;;;;;;;;;;;;;;13.32;100.00;96280.81;10432244;28;5199;-78
2023/09/05 02:58:46;;;;;;;;;;;;;;;13.30;100.00;96274.88;10429187;28;1557;-77
2023/09/05 03:03:49;;;;;;;;;;;;;;;13.24;100.00;96267.91;10419448;28;1983;-77
2023/09/05 03:08:51;;;;;;;;;;;;;;;13.16;100.00;96277.34;10430216;28;1091;-78
2023/09/05 03:13:54;;;;;;;;;;;;;;;13.21;100.00;96276.53;10425742;28;1521;-77
2023/09/05 03:18:59;;;;;;;;;;;;;;;13.27;100.00;96272.72;10430855;28;1588;-77
2023/09/05 03:24:02;;;;;;;;;;;;;;;13.17;100.00;96278.16;10429809;28;1906;-77
2023/09/05 03:29:04;;;;;;;;;;;;;;;13.30;100.00;96280.28;10422549;28;1478;-78
2023/09/05 03:34:07;;;;;;;;;;;;;;;13.24;100.00;96276.00;10429481;28;1482;-77
2023/09/05 03:39:09;;;;;;;;;;;;;;;13.10;100.00;96283.03;10456855;28;2503;-77
2023/09/05 03:44:11;;;;;;;;;;;;;;;13.01;100.00;96282.00;10429143;28;1922;-77
2023/09/05 03:49:14;;;;;;;;;;;;;;;12.94;100.00;96285.81;10429031;28;1469;-77
2023/09/05 03:54:16;;;;;;;;;;;;;;;12.84;100.00;96277.75;10425383;28;5122;-79
2023/09/05 03:59:19;;;;;;;;;;;;;;;12.76;100.00;96282.91;10427091;28;1981;-77
2023/09/05 04:04:21;;;;;;;;;;;;;;;12.85;100.00;96276.69;10430473;28;1910;-78
2023/09/05 04:09:23;;;;;;;;;;;;;;;12.76;100.00;96281.00;10429385;28;1055;-77
2023/09/05 04:14:26;;;;;;;;;;;;;;;12.85;100.00;96282.06;10436403;28;1423;-77
2023/09/05 04:19:28;;;;;;;;;;;;;;;12.75;100.00;96271.31;10433445;28;1381;-78
2023/09/05 04:24:30;;;;;;;;;;;;;;;12.75;100.00;96282.09;10430442;28;1918;-78
2023/09/05 04:29:33;;;;;;;;;;;;;;;12.68;100.00;96289.69;10429989;28;1436;-78
2023/09/05 04:34:36;;;;;;;;;;;;;;;12.70;100.00;96291.00;10428062;28;2229;-78
2023/09/05 04:39:38;;;;;;;;;;;;;;;12.71;100.00;96291.81;10437172;28;1091;-77
2023/09/05 04:44:40;;;;;;;;;;;;;;;12.60;100.00;96301.84;10424542;28;1979;-78
2023/09/05 04:49:43;;;;;;;;;;;;;;;12.75;100.00;96310.97;10432016;28;1443;-79
2023/09/05 04:54:45;;;;;;;;;;;;;;;12.88;100.00;96305.00;10438958;28;1525;-78
2023/09/05 04:59:48;;;;;;;;;;;;;;;12.84;100.00;96307.41;10426200;28;1099;-78
2023/09/05 05:04:50;;;;;;;;;;;;;;;12.97;100.00;96312.22;10429649;28;1989;-77
2023/09/05 05:09:53;;;;;;;;;;;;;;;13.13;100.00;96314.88;10433257;28;996;-77
2023/09/05 05:14:55;;;;;;;;;;;;;;;13.37;100.00;96310.50;10440114;28;1032;-78
2023/09/05 05:19:57;;;;;;;;;;;;;;;13.61;100.00;96299.78;10444710;28;1910;-78
2023/09/05 05:25:00;;;;;;;;;;;;;;;13.76;100.00;96317.81;10439194;28;984;-77
2023/09/05 05:30:02;;;;;;;;;;;;;;;14.07;100.00;96303.00;10419588;28;1388;-78
2023/09/05 05:35:05;;;;;;;;;;;;;;;14.00;100.00;96307.13;10428288;28;2442;-77
2023/09/05 05:40:07;;;;;;;;;;;;;;;13.98;100.00;96293.88;10433659;28;1918;-78
2023/09/05 05:45:10;;;;;;;;;;;;;;;14.36;100.00;96296.00;10424168;28;1372;-78
2023/09/05 05:50:12;;;;;;;;;;;;;;;14.46;100.00;96299.44;10437049;28;1415;-78
2023/09/05 05:55:15;;;;;;;;;;;;;;;14.29;100.00;96304.44;10437154;28;5183;-77
2023/09/05 06:00:17;;;;;;;;;;;;;;;14.20;100.00;96314.25;10442435;28;1930;-77
2023/09/05 06:05:19;;;;;;;;;;;;;;;14.17;100.00;96321.03;10436174;28;1427;-77
2023/09/05 06:10:22;;;;;;;;;;;;;;;14.30;100.00;96317.66;10431841;28;1261;-78
2023/09/05 06:15:24;;;;;;;;;;;;;;;14.66;100.00;96327.41;10431315;28;1415;-78
2023/09/05 06:20:27;;;;;;;;;;;;;;;14.94;100.00;96315.72;10433230;28;1910;-78
2023/09/05 06:25:29;;;;;;;;;;;;;;;14.92;100.00;96307.09;10429037;28;1044;-78
2023/09/05 06:30:32;;;;;;;;;;;;;;;15.15;100.00;96308.19;10428070;28;2244;-78
2023/09/05 06:35:34;;;;;;;;;;;;;;;15.38;100.00;96307.31;10428694;28;1554;-77
2023/09/05 06:40:37;;;;;;;;;;;;;;;15.66;100.00;96300.22;10428579;28;1983;-78
2023/09/05 06:45:39;;;;;;;;;;;;;;;15.60;100.00;96304.06;10429876;28;1505;-77
2023/09/05 06:50:42;;;;;;;;;;;;;;;15.52;100.00;96304.69;10432491;28;1360;-77
2023/09/05 06:55:46;;;;;;;;;;;;;;;15.62;100.00;96298.38;10416873;28;5078;-79
2023/09/05 07:00:51;;;;;;;;;;;;;;;15.96;100.00;96300.84;10425080;28;1965;-79
2023/09/05 07:05:54;;;;;;;;;;;;;;;15.93;100.00;96301.44;10418134;28;1391;-81
2023/09/05 07:11:08;;;;;;;;;;;;;;;16.47;100.00;96291.88;10439679;28;1107;-77
2023/09/05 07:16:10;;;;;;;;;;;;;;;16.62;100.00;96299.75;10433157;28;1602;-78
2023/09/05 07:21:13;;;;;;;;;;;;;;;16.82;100.00;96297.81;10433168;28;1910;-78
2023/09/05 07:26:15;;;;;;;;;;;;;;;16.91;100.00;96301.41;10432968;28;1121;-78
2023/09/05 07:31:18;;;;;;;;;;;;;;;17.01;100.00;96301.22;10425837;28;1388;-77
2023/09/05 07:36:20;;;;;;;;;;;;;;;17.02;100.00;96297.41;10430925;28;1485;-77
2023/09/05 07:41:23;;;;;;;;;;;;;;;17.00;100.00;96288.75;10430631;28;1922;-79
2023/09/05 07:46:25;;;;;;;;;;;;;;;17.22;100.00;96288.84;10427616;28;1329;-78
2023/09/05 07:51:29;;;;;;;;;;;;;;;18.00;100.00;96283.34;10428948;28;1407;-78
2023/09/05 07:56:33;;;;;;;;;;;;;;;17.97;100.00;96292.94;10433860;28;5102;-77
2023/09/05 08:01:37;;;;;;;;;;;;;;;18.55;100.00;96272.19;10433470;28;1910;-78
2023/09/05 08:06:40;;;;;;;;;;;;;;;18.61;100.00;96270.94;10434571;28;1756;-78
2023/09/05 08:11:42;;;;;;;;;;;;;;;18.92;100.00;96273.69;10427411;28;1388;-77
2023/09/05 08:16:45;;;;;;;;;;;;;;;19.05;100.00;96274.69;10438990;28;1454;-78
2023/09/05 08:21:47;;;;;;;;;;;;;;;18.73;100.00;96289.44;10432209;28;2412;-78
2023/09/05 08:26:49;;;;;;;;;;;;;;;19.01;100.00;96279.16;10433815;28;1352;-78
2023/09/05 08:31:52;;;;;;;;;;;;;;;19.35;100.00;96284.72;10439199;28;1424;-79
2023/09/05 08:36:56;;;;;;;;;;;;;;;19.48;100.00;96280.25;10440510;28;1356;-79
2023/09/05 08:42:00;;;;;;;;;;;;;;;19.66;100.00;96270.22;10430298;28;1976;-77
2023/09/05 08:47:02;;;;;;;;;;;;;;;19.35;100.00;96279.28;10435248;28;1388;-77
2023/09/05 08:52:05;;;;;;;;;;;;;;;19.58;100.00;96276.44;10436977;28;1409;-76
2023/09/05 08:57:08;;;;;;;;;;;;;;;19.87;100.00;96263.00;10432877;28;5165;-78
2023/09/05 09:02:10;;;;;;;;;;;;;;;20.02;100.00;96263.63;10430772;28;1907;-78
2023/09/05 09:07:13;;;;;;;;;;;;;;;19.90;100.00;96262.34;10430776;28;1467;-80
2023/09/05 09:12:15;;;;;;;;;;;;;;;20.18;100.00;96262.00;10431011;28;1377;-79
2023/09/05 09:17:18;;;;;;;;;;;;;;;20.51;100.00;96262.31;10430667;28;2224;-78
2023/09/05 09:22:20;;;;;;;;;;;;;;;20.56;100.00;96250.41;10435089;28;1922;-77
2023/09/05 09:27:23;;;;;;;;;;;;;;;20.76;100.00;96261.41;10424836;28;1509;-78
2023/09/05 09:32:29;;;;;;;;;;;;;;;20.69;100.00;96260.31;10431782;28;1455;-79
2023/09/05 09:37:31;;;;;;;;;;;;;;;20.36;100.00;96258.13;10436351;28;1485;-79
2023/09/05 09:42:34;;;;;;;;;;;;;;;20.42;100.00;96248.66;10440990;28;1914;-79
2023/09/05 09:47:36;;;;;;;;;;;;;;;20.87;100.00;96240.00;10432646;28;1452;-80
2023/09/05 09:52:39;;;;;;;;;;;;;;;20.82;100.00;96232.00;10440042;28;1463;-79
2023/09/05 09:57:44;;;;;;;;;;;;;;;20.65;100.00;96240.25;10435134;28;1384;-79
2023/09/05 10:02:46;;;;;;;;;;;;;;;20.68;100.00;96226.75;10433396;28;1906;-79
2023/09/05 10:07:49;;;;;;;;;;;;;;;21.24;100.00;96221.16;10426365;28;1587;-78
2023/09/05 10:12:51;;;;;;;;;;;;;;;21.56;100.00;96217.75;10420127;28;2342;-77
2023/09/05 10:17:54;;;;;;;;;;;;;;;21.25;100.00;96218.09;10426507;28;1513;-79
2023/09/05 10:22:57;;;;;;;;;;;;;;;21.63;100.00;96224.63;10426455;28;1914;-77
2023/09/05 10:28:00;;;;;;;;;;;;;;;21.20;100.00;96214.75;10435774;28;1328;-78
2023/09/05 10:33:02;;;;;;;;;;;;;;;21.28;100.00;96208.44;10427074;28;1706;-78
2023/09/05 10:38:05;;;;;;;;;;;;;;;21.48;100.00;96199.47;10422727;28;1649;-78
2023/09/05 10:43:07;;;;;;;;;;;;;;;21.37;100.00;96198.25;10422844;28;1973;-80
2023/09/05 10:48:11;;;;;;;;;;;;;;;21.56;100.00;96190.38;10430746;28;1177;-79
2023/09/05 10:53:14;;;;;;;;;;;;;;;21.63;100.00;96202.72;10433745;28;1224;-78
2023/09/05 10:58:17;;;;;;;;;;;;;;;21.74;100.00;96190.25;10430692;28;1301;-78
2023/09/05 11:03:19;;;;;;;;;;;;;;;21.89;100.00;96194.31;10426590;28;1915;-78
2023/09/05 11:08:22;;;;;;;;;;;;;;;22.03;100.00;96179.22;10425759;28;2279;-79
2023/09/05 11:13:24;;;;;;;;;;;;;;;21.81;100.00;96176.81;10424225;28;1494;-78
2023/09/05 11:18:27;;;;;;;;;;;;;;;22.02;100.00;96180.34;10455056;28;1506;-78
2023/09/05 11:23:30;;;;;;;;;;;;;;;22.29;100.00;96167.22;10429661;28;1914;-80
2023/09/05 11:28:32;;;;;;;;;;;;;;;22.16;100.00;96168.31;10430191;28;1367;-78
2023/09/05 11:33:36;;;;;;;;;;;;;;;21.92;100.00;96163.53;10421723;28;1403;-78
2023/09/05 11:38:38;;;;;;;;;;;;;;;22.17;100.00;96156.22;10422027;28;1102;-79
2023/09/05 11:43:41;;;;;;;;;;;;;;;22.37;100.00;96139.72;10430177;28;1914;-78
2023/09/05 11:48:43;;;;;;;;;;;;;;;22.36;100.00;96132.66;10424259;28;1451;-78
2023/09/05 11:53:45;;;;;;;;;;;;;;;22.41;100.00;96134.38;10432990;28;5245;-78
2023/09/05 11:58:48;;;;;;;;;;;;;;;22.36;100.00;96135.38;10442542;28;1446;-79
2023/09/05 12:03:50;;;;;;;;;;;;;;;22.27;100.00;96126.47;10430181;28;1979;-79
2023/09/05 12:08:53;;;;;;;;;;;;;;;22.45;100.00;96127.06;10432835;28;2609;-80
2023/09/05 12:13:56;;;;;;;;;;;;;;;22.48;97.77;96122.84;10426965;28;1577;-79
2023/09/05 12:18:58;;;;;;;;;;;;;;;22.55;97.43;96121.13;10434311;28;1364;-77
2023/09/05 12:24:00;;;;;;;;;;;;;;;22.72;94.83;96119.31;10432575;28;1969;-78
2023/09/05 12:29:03;;;;;;;;;;;;;;;22.87;90.71;96107.69;10434522;28;1051;-79
2023/09/05 12:34:05;;;;;;;;;;;;;;;22.88;90.50;96104.59;10427297;28;1487;-78
2023/09/05 12:39:08;;;;;;;;;;;;;;;22.77;88.10;96092.47;10434217;28;1496;-79
2023/09/05 12:44:10;;;;;;;;;;;;;;;23.22;85.25;96083.25;10431243;28;2035;-78
2023/09/05 12:49:13;;;;;;;;;;;;;;;22.96;90.39;96086.41;10435776;28;1376;-80
2023/09/05 12:54:16;;;;;;;;;;;;;;;23.09;97.47;96074.28;10434248;28;1227;-79
2023/09/05 12:59:21;;;;;;;;;;;;;;;22.91;85.30;96056.53;10436906;28;1396;-77
2023/09/05 13:04:27;;;;;;;;;;;;;;;23.00;84.51;96064.59;10429067;28;2463;-78
2023/09/05 13:09:29;;;;;;;;;;;;;;;23.00;81.32;96065.41;10434086;28;1086;-78
2023/09/05 13:14:32;;;;;;;;;;;;;;;23.06;92.89;96052.25;10435337;28;1415;-79
2023/09/05 13:19:34;;;;;;;;;;;;;;;23.32;88.48;96060.84;10437871;28;1393;-78
2023/09/05 13:24:36;;;;;;;;;;;;;;;23.06;92.10;96047.56;10429708;28;1961;-78
2023/09/05 13:29:39;;;;;;;;;;;;;;;23.04;96.64;96049.06;10430444;28;1464;-77
2023/09/05 13:34:41;;;;;;;;;;;;;;;23.24;92.86;96047.28;10420700;28;1377;-78
2023/09/05 13:39:45;;;;;;;;;;;;;;;23.16;93.84;96049.84;10433313;28;1622;-81
2023/09/05 13:44:47;;;;;;;;;;;;;;;23.27;89.37;96046.56;10429069;28;1914;-80
2023/09/05 13:49:50;;;;;;;;;;;;;;;23.32;94.35;96043.59;10427231;28;1414;-79
2023/09/05 13:54:52;;;;;;;;;;;;;;;23.29;94.24;96033.34;10435527;28;5077;-78
2023/09/05 13:59:54;;;;;;;;;;;;;;;23.25;92.77;96026.94;10428697;28;2378;-79
2023/09/05 14:04:58;;;;;;;;;;;;;;;23.28;88.40;96028.97;10430067;28;1975;-81
2023/09/05 14:10:01;;;;;;;;;;;;;;;23.04;85.16;96038.91;10425967;28;1091;-79
2023/09/05 14:15:04;;;;;;;;;;;;;;;23.30;86.50;96032.97;10427422;28;1480;-78
2023/09/05 14:20:07;;;;;;;;;;;;;;;23.28;82.04;96037.19;10425586;28;1424;-77
2023/09/05 14:25:09;;;;;;;;;;;;;;;23.14;80.77;96043.88;10427757;28;1971;-78
2023/09/05 14:30:11;;;;;;;;;;;;;;;23.07;76.49;96038.19;10430603;28;1360;-78
2023/09/05 14:35:14;;;;;;;;;;;;;;;23.27;76.91;96041.09;10434985;28;1305;-78
2023/09/05 14:40:16;;;;;;;;;;;;;;;23.20;74.44;96037.00;10433211;28;1054;-78
2023/09/05 14:45:19;;;;;;;;;;;;;;;23.13;75.71;96031.31;10429523;28;2335;-78
2023/09/05 14:50:22;;;;;;;;;;;;;;;23.11;73.99;96033.63;10429893;28;1337;-78
2023/09/05 14:55:25;;;;;;;;;;;;;;;22.90;72.87;96030.22;10422070;28;5088;-78
2023/09/05 15:00:28;;;;;;;;;;;;;;;23.02;71.88;96026.66;10433092;28;1569;-79
2023/09/05 15:05:31;;;;;;;;;;;;;;;23.11;70.00;96022.66;10427417;28;1905;-78
2023/09/05 15:10:33;;;;;;;;;;;;;;;22.91;73.48;96018.16;10425969;28;1166;-79
2023/09/05 15:15:36;;;;;;;;;;;;;;;22.85;76.41;96016.75;10428355;28;1649;-78
2023/09/05 15:20:38;;;;;;;;;;;;;;;22.71;74.35;96019.06;10443494;28;1435;-79
2023/09/05 15:25:41;;;;;;;;;;;;;;;22.43;79.15;96019.78;10426858;28;1965;-79
2023/09/05 15:30:43;;;;;;;;;;;;;;;22.41;82.37;96033.03;10434472;28;1383;-80
2023/09/05 15:35:46;;;;;;;;;;;;;;;22.51;84.85;96032.56;10431372;28;1384;-79
2023/09/05 15:40:49;;;;;;;;;;;;;;;22.30;85.37;96035.41;10441105;28;1249;-77
2023/09/05 15:45:54;;;;;;;;;;;;;;;22.15;87.91;96043.53;10430027;28;1906;-77
2023/09/05 15:50:57;;;;;;;;;;;;;;;22.08;86.38;96031.16;10424644;28;2372;-78
2023/09/05 15:55:59;;;;;;;;;;;;;;;21.96;90.14;96033.91;10434136;28;1059;-78
2023/09/05 16:01:02;;;;;;;;;;;;;;;21.85;93.71;96024.53;10438312;28;1390;-77
2023/09/05 16:06:04;;;;;;;;;;;;;;;21.87;96.66;96033.19;10437535;28;1938;-77
2023/09/05 16:11:07;;;;;;;;;;;;;;;21.80;98.58;96025.53;10434065;28;1008;-78
2023/09/05 16:16:12;;;;;;;;;;;;;;;21.70;96.00;96025.19;10438074;28;1360;-79
2023/09/05 16:21:14;;;;;;;;;;;;;;;21.58;95.33;96026.75;10433037;28;1430;-79
2023/09/05 16:26:17;;;;;;;;;;;;;;;21.53;96.74;96037.09;10441181;28;1917;-79
2023/09/05 16:31:19;;;;;;;;;;;;;;;21.47;89.46;96035.72;10432247;28;1855;-78
2023/09/05 16:36:22;;;;;;;;;;;;;;;21.36;88.48;96049.00;10431858;28;1356;-79
2023/09/05 16:41:29;;;;;;;;;;;;;;;21.31;84.59;96041.81;10428683;28;1183;-78
2023/09/05 16:46:32;;;;;;;;;;;;;;;21.17;87.28;96038.50;10435982;28;2308;-78
2023/09/05 16:51:35;;;;;;;;;;;;;;;20.97;89.43;96040.13;10437457;28;1351;-79
2023/09/05 16:56:38;;;;;;;;;;;;;;;20.84;90.68;96040.41;10428426;28;5023;-78
2023/09/05 17:01:41;;;;;;;;;;;;;;;20.78;92.29;96048.78;10434565;28;1379;-80
2023/09/05 17:06:43;;;;;;;;;;;;;;;20.59;94.41;96048.44;10432096;28;1973;-78
2023/09/05 17:11:46;;;;;;;;;;;;;;;20.47;97.17;96051.06;10429827;28;1324;-77
2023/09/05 17:16:48;;;;;;;;;;;;;;;20.40;99.10;96051.56;10426718;28;1362;-78
2023/09/05 17:21:51;;;;;;;;;;;;;;;20.28;100.00;96058.84;10432766;28;1481;-78
2023/09/05 17:26:53;;;;;;;;;;;;;;;20.13;100.00;96054.75;10434037;28;1922;-78
2023/09/05 17:31:55;;;;;;;;;;;;;;;19.91;100.00;96067.53;10427203;28;1641;-79
2023/09/05 17:36:58;;;;;;;;;;;;;;;19.68;100.00;96074.31;10425509;28;1404;-79
2023/09/05 17:42:06;;;;;;;;;;;;;;;19.42;100.00;96072.41;10423404;28;1284;-79
2023/09/05 17:47:08;;;;;;;;;;;;;;;19.36;100.00;96084.59;10426784;28;1902;-79
2023/09/05 17:52:11;;;;;;;;;;;;;;;19.21;100.00;96085.06;10427901;28;1320;-79
2023/09/05 17:57:13;;;;;;;;;;;;;;;19.09;100.00;96090.38;10431655;28;5568;-79
2023/09/05 18:02:15;;;;;;;;;;;;;;;18.94;100.00;96093.56;10427913;28;1517;-79
2023/09/05 18:07:30;;;;;;;;;;;;;;;18.72;100.00;96103.47;10429754;28;1987;-79
2023/09/05 18:12:32;;;;;;;;;;;;;;;18.42;100.00;96099.69;10427196;28;1364;-78
2023/09/05 18:17:36;;;;;;;;;;;;;;;18.35;100.00;96113.75;10432214;28;1043;-77
2023/09/05 18:22:39;;;;;;;;;;;;;;;18.24;100.00;96109.69;10428337;28;1337;-79
2023/09/05 18:27:41;;;;;;;;;;;;;;;18.07;100.00;96105.00;10433644;28;1918;-79
2023/09/05 18:32:43;;;;;;;;;;;;;;;18.07;100.00;96112.38;10430543;28;1333;-79
2023/09/05 18:37:46;;;;;;;;;;;;;;;17.95;100.00;96120.28;10429891;28;1464;-79
2023/09/05 18:42:49;;;;;;;;;;;;;;;17.98;100.00;96116.94;10427264;28;2320;-79
2023/09/05 18:47:52;;;;;;;;;;;;;;;17.85;100.00;96106.94;10431308;28;1914;-79
2023/09/05 18:52:55;;;;;;;;;;;;;;;17.77;100.00;96112.03;10432511;28;4991;-79
2023/09/05 18:57:58;;;;;;;;;;;;;;;17.71;100.00;96115.16;10433354;28;1305;-78
2023/09/05 19:03:01;;;;;;;;;;;;;;;17.53;100.00;96112.31;10432477;28;1487;-80
2023/09/05 19:08:03;;;;;;;;;;;;;;;17.51;100.00;96106.41;10441346;28;1985;-79
2023/09/05 19:13:06;;;;;;;;;;;;;;;17.46;100.00;96111.16;10435599;28;1369;-79
2023/09/05 19:18:08;;;;;;;;;;;;;;;17.48;100.00;96107.00;10440344;28;1019;-79
2023/09/05 19:23:11;;;;;;;;;;;;;;;17.35;100.00;96109.78;10472752;28;1606;-79
2023/09/05 19:28:13;;;;;;;;;;;;;;;17.08;100.00;96106.06;10435425;28;1922;-79
2023/09/05 19:33:17;;;;;;;;;;;;;;;17.08;100.00;96111.50;10449709;28;1339;-78
2023/09/05 19:38:20;;;;;;;;;;;;;;;17.04;100.00;96102.34;10438043;28;2430;-79
2023/09/05 19:43:23;;;;;;;;;;;;;;;16.95;100.00;96102.28;10438934;28;1478;-79
2023/09/05 19:48:25;;;;;;;;;;;;;;;16.97;100.00;96100.06;10442488;28;2046;-80
2023/09/05 19:53:28;;;;;;;;;;;;;;;16.96;100.00;96092.22;10441571;28;5148;-79
2023/09/05 19:58:30;;;;;;;;;;;;;;;16.82;100.00;96094.19;10433769;28;1415;-79
2023/09/05 20:03:34;;;;;;;;;;;;;;;16.82;100.00;96091.47;10443990;28;1419;-79
2023/09/05 20:08:39;;;;;;;;;;;;;;;16.78;100.00;96091.25;10442472;28;1914;-78
2023/09/05 20:13:41;;;;;;;;;;;;;;;16.68;100.00;96081.41;10432488;28;1408;-80
2023/09/05 20:18:44;;;;;;;;;;;;;;;16.68;100.00;96096.91;10441408;28;1376;-78
2023/09/05 20:23:47;;;;;;;;;;;;;;;16.43;100.00;96092.81;10435853;28;1158;-78
2023/09/05 20:28:50;;;;;;;;;;;;;;;16.23;100.00;96091.31;10432347;28;1895;-79
2023/09/05 20:33:53;;;;;;;;;;;;;;;16.31;100.00;96081.66;10428610;28;2511;-78
2023/09/05 20:38:56;;;;;;;;;;;;;;;16.10;100.00;96081.25;10433586;28;1229;-78
2023/09/05 20:43:58;;;;;;;;;;;;;;;15.99;100.00;96074.41;10428362;28;1898;-79
2023/09/05 20:49:01;;;;;;;;;;;;;;;16.00;100.00;96070.59;10434524;28;1336;-78
2023/09/05 20:54:04;;;;;;;;;;;;;;;15.90;100.00;96082.44;10429360;28;1197;-79
2023/09/05 20:59:07;;;;;;;;;;;;;;;15.76;100.00;96085.13;10429076;28;1438;-79
2023/09/05 21:04:11;;;;;;;;;;;;;;;15.59;100.00;96084.88;10433188;28;1906;-79
2023/09/05 21:09:17;;;;;;;;;;;;;;;15.43;100.00;96087.03;10430812;28;1095;-80
2023/09/05 21:14:22;;;;;;;;;;;;;;;15.43;100.00;96078.91;10434480;28;1375;-79
2023/09/05 21:19:25;;;;;;;;;;;;;;;15.55;100.00;96081.16;10429395;28;1391;-79
2023/09/05 21:24:28;;;;;;;;;;;;;;;15.49;100.00;96080.44;10432635;28;1910;-79
2023/09/05 21:29:30;;;;;;;;;;;;;;;15.47;100.00;96073.72;10426384;28;2442;-79
2023/09/05 21:34:33;;;;;;;;;;;;;;;15.53;100.00;96076.03;10434439;28;1505;-79
2023/09/05 21:39:35;;;;;;;;;;;;;;;15.53;100.00;96078.75;10435185;28;1552;-78
2023/09/05 21:44:37;;;;;;;;;;;;;;;15.40;100.00;96082.22;10421571;28;1941;-79
2023/09/05 21:49:40;;;;;;;;;;;;;;;15.28;100.00;96079.97;10432683;28;1647;-79
2023/09/05 21:54:43;;;;;;;;;;;;;;;15.22;100.00;96083.88;10436830;28;5066;-78
2023/09/05 21:59:46;;;;;;;;;;;;;;;15.25;100.00;96074.31;10433346;28;1353;-79
2023/09/05 22:04:49;;;;;;;;;;;;;;;15.21;100.00;96079.53;10446506;28;1884;-78
2023/09/05 22:09:52;;;;;;;;;;;;;;;15.25;100.00;96077.84;10454834;28;1190;-78
2023/09/05 22:14:54;;;;;;;;;;;;;;;15.11;100.00;96072.38;10446849;28;1086;-78
2023/09/05 22:19:56;;;;;;;;;;;;;;;14.99;100.00;96080.16;10444028;28;1476;-78
2023/09/05 22:24:59;;;;;;;;;;;;;;;14.98;100.00;96075.03;10445372;28;2311;-78
2023/09/05 22:30:05;;;;;;;;;;;;;;;15.09;100.00;96066.47;10446884;28;1404;-78
2023/09/05 22:35:10;;;;;;;;;;;;;;;15.15;100.00;96072.59;10435768;28;1376;-78
2023/09/05 22:40:18;;;;;;;;;;;;;;;14.95;100.00;96059.34;10433535;28;1082;-79
2023/09/05 22:45:20;;;;;;;;;;;;;;;14.81;100.00;96068.22;10434895;28;1984;-79
2023/09/05 22:50:23;;;;;;;;;;;;;;;14.78;100.00;96078.84;10435535;28;1369;-79
2023/09/05 22:55:26;;;;;;;;;;;;;;;14.70;100.00;96083.00;10434235;28;5098;-78
2023/09/05 23:00:28;;;;;;;;;;;;;;;14.57;100.00;96084.53;10433936;28;1380;-77
2023/09/05 23:05:31;;;;;;;;;;;;;;;14.57;100.00;96081.84;10433926;28;1917;-78
2023/09/05 23:10:34;;;;;;;;;;;;;;;14.56;100.00;96088.31;10429545;28;1091;-78
2023/09/05 23:15:38;;;;;;;;;;;;;;;14.52;100.00;96076.50;10426369;28;1361;-78
2023/09/05 23:20:40;;;;;;;;;;;;;;;14.56;100.00;96076.69;10427161;28;2415;-77
2023/09/05 23:25:45;;;;;;;;;;;;;;;14.45;100.00;96081.44;10427438;28;1910;-79
2023/09/05 23:30:47;;;;;;;;;;;;;;;14.47;100.00;96081.97;10424128;28;1581;-79
2023/09/05 23:35:52;;;;;;;;;;;;;;;14.40;100.00;96088.78;10425365;28;1490;-79
2023/09/05 23:40:54;;;;;;;;;;;;;;;14.42;100.00;96082.00;10427307;28;1008;-78
2023/09/05 23:45:57;;;;;;;;;;;;;;;14.36;100.00;96077.75;10429526;28;1910;-78
2023/09/05 23:51:00;;;;;;;;;;;;;;;14.40;100.00;96084.19;10439637;28;1344;-78
2023/09/05 23:56:03;;;;;;;;;;;;;;;14.28;100.00;96083.78;10428575;28;5015;-77
